sensor_id;sensor_type;location;lat;lon;timestamp;P1;durP1;ratioP1;P2;durP2;ratioP2
57325;SDS011;43161;50.950;18.224;2023-06-14T00:00:18;11.30;;;4.90;;
57325;SDS011;43161;50.950;18.224;2023-06-14T00:02:45;14.40;;;6.00;;
57325;SDS011;43161;50.950;18.224;2023-06-14T00:05:11;15.90;;;5.60;;
57325;SDS011;43161;50.950;18.224;2023-06-14T00:07:40;12.70;;;5.90;;
57325;SDS011;43161;50.950;18.224;2023-06-14T00:10:13;13.50;;;5.70;;
57325;SDS011;43161;50.950;18.224;2023-06-14T00:12:40;11.40;;;4.80;;
57325;SDS011;43161;50.950;18.224;2023-06-14T00:15:06;12.30;;;4.60;;
57325;SDS011;43161;50.950;18.224;2023-06-14T00:17:35;11.00;;;4.80;;
57325;SDS011;43161;50.950;18.224;2023-06-14T00:20:02;17.00;;;7.20;;
57325;SDS011;43161;50.950;18.224;2023-06-14T00:22:32;18.80;;;7.30;;
57325;SDS011;43161;50.950;18.224;2023-06-14T00:24:58;14.00;;;6.50;;
57325;SDS011;43161;50.950;18.224;2023-06-14T00:27:24;14.80;;;6.10;;
57325;SDS011;43161;50.950;18.224;2023-06-14T00:29:50;16.30;;;6.50;;
57325;SDS011;43161;50.950;18.224;2023-06-14T00:32:16;15.80;;;6.90;;
57325;SDS011;43161;50.950;18.224;2023-06-14T00:34:41;13.00;;;5.90;;
57325;SDS011;43161;50.950;18.224;2023-06-14T00:37:07;14.00;;;6.00;;
57325;SDS011;43161;50.950;18.224;2023-06-14T00:39:33;13.10;;;4.80;;
57325;SDS011;43161;50.950;18.224;2023-06-14T00:41:59;13.10;;;5.80;;
57325;SDS011;43161;50.950;18.224;2023-06-14T00:44:24;16.10;;;5.40;;
57325;SDS011;43161;50.950;18.224;2023-06-14T00:46:50;12.00;;;5.10;;
57325;SDS011;43161;50.950;18.224;2023-06-14T00:49:16;12.00;;;4.70;;
57325;SDS011;43161;50.950;18.224;2023-06-14T00:51:43;14.70;;;5.40;;
57325;SDS011;43161;50.950;18.224;2023-06-14T00:54:08;14.20;;;5.80;;
57325;SDS011;43161;50.950;18.224;2023-06-14T00:56:38;14.50;;;5.60;;
57325;SDS011;43161;50.950;18.224;2023-06-14T00:59:04;13.80;;;5.30;;
57325;SDS011;43161;50.950;18.224;2023-06-14T01:01:32;12.50;;;5.60;;
57325;SDS011;43161;50.950;18.224;2023-06-14T01:03:59;13.30;;;5.30;;
57325;SDS011;43161;50.950;18.224;2023-06-14T01:09:26;12.70;;;5.80;;
57325;SDS011;43161;50.950;18.224;2023-06-14T01:14:56;14.90;;;5.50;;
57325;SDS011;43161;50.950;18.224;2023-06-14T01:17:22;11.90;;;5.00;;
57325;SDS011;43161;50.950;18.224;2023-06-14T01:19:50;12.20;;;5.10;;
57325;SDS011;43161;50.950;18.224;2023-06-14T01:22:24;13.50;;;5.50;;
57325;SDS011;43161;50.950;18.224;2023-06-14T01:24:51;12.60;;;5.00;;
57325;SDS011;43161;50.950;18.224;2023-06-14T01:27:23;13.40;;;5.10;;
57325;SDS011;43161;50.950;18.224;2023-06-14T01:29:54;15.40;;;6.40;;
57325;SDS011;43161;50.950;18.224;2023-06-14T01:32:25;13.40;;;5.90;;
57325;SDS011;43161;50.950;18.224;2023-06-14T01:34:52;14.60;;;5.40;;
57325;SDS011;43161;50.950;18.224;2023-06-14T01:37:18;12.20;;;5.70;;
57325;SDS011;43161;50.950;18.224;2023-06-14T01:39:45;12.60;;;5.30;;
57325;SDS011;43161;50.950;18.224;2023-06-14T01:42:11;12.60;;;5.10;;
57325;SDS011;43161;50.950;18.224;2023-06-14T01:44:39;13.40;;;5.70;;
57325;SDS011;43161;50.950;18.224;2023-06-14T01:47:05;12.40;;;5.40;;
57325;SDS011;43161;50.950;18.224;2023-06-14T01:49:33;11.20;;;5.30;;
57325;SDS011;43161;50.950;18.224;2023-06-14T01:52:00;12.10;;;5.50;;
57325;SDS011;43161;50.950;18.224;2023-06-14T01:54:26;13.10;;;5.10;;
57325;SDS011;43161;50.950;18.224;2023-06-14T01:56:52;12.40;;;5.00;;
57325;SDS011;43161;50.950;18.224;2023-06-14T01:59:18;12.10;;;5.00;;
57325;SDS011;43161;50.950;18.224;2023-06-14T02:01:44;11.40;;;5.00;;
57325;SDS011;43161;50.950;18.224;2023-06-14T02:04:11;12.20;;;5.50;;
57325;SDS011;43161;50.950;18.224;2023-06-14T02:06:37;12.90;;;5.00;;
57325;SDS011;43161;50.950;18.224;2023-06-14T02:09:03;12.40;;;4.70;;
57325;SDS011;43161;50.950;18.224;2023-06-14T02:11:29;13.70;;;5.40;;
57325;SDS011;43161;50.950;18.224;2023-06-14T02:13:55;11.90;;;5.20;;
57325;SDS011;43161;50.950;18.224;2023-06-14T02:16:21;12.50;;;4.80;;
57325;SDS011;43161;50.950;18.224;2023-06-14T02:18:47;13.20;;;5.40;;
57325;SDS011;43161;50.950;18.224;2023-06-14T02:21:13;12.70;;;5.90;;
57325;SDS011;43161;50.950;18.224;2023-06-14T02:23:39;13.90;;;5.60;;
57325;SDS011;43161;50.950;18.224;2023-06-14T02:26:05;11.70;;;5.30;;
57325;SDS011;43161;50.950;18.224;2023-06-14T02:28:31;12.90;;;5.40;;
57325;SDS011;43161;50.950;18.224;2023-06-14T02:30:57;12.00;;;5.40;;
57325;SDS011;43161;50.950;18.224;2023-06-14T02:33:22;12.10;;;4.80;;
57325;SDS011;43161;50.950;18.224;2023-06-14T02:35:48;11.40;;;4.60;;
57325;SDS011;43161;50.950;18.224;2023-06-14T02:38:14;13.00;;;5.20;;
57325;SDS011;43161;50.950;18.224;2023-06-14T02:40:40;14.50;;;5.00;;
57325;SDS011;43161;50.950;18.224;2023-06-14T02:43:08;12.60;;;5.50;;
57325;SDS011;43161;50.950;18.224;2023-06-14T02:45:34;13.00;;;5.20;;
57325;SDS011;43161;50.950;18.224;2023-06-14T02:47:59;12.00;;;5.40;;
57325;SDS011;43161;50.950;18.224;2023-06-14T02:50:25;13.50;;;5.50;;
57325;SDS011;43161;50.950;18.224;2023-06-14T02:52:51;12.20;;;5.20;;
57325;SDS011;43161;50.950;18.224;2023-06-14T02:55:18;12.60;;;5.50;;
57325;SDS011;43161;50.950;18.224;2023-06-14T02:57:43;13.00;;;5.40;;
57325;SDS011;43161;50.950;18.224;2023-06-14T03:00:09;11.40;;;4.90;;
57325;SDS011;43161;50.950;18.224;2023-06-14T03:02:38;14.90;;;5.50;;
57325;SDS011;43161;50.950;18.224;2023-06-14T03:05:05;13.20;;;5.20;;
57325;SDS011;43161;50.950;18.224;2023-06-14T03:07:32;13.10;;;5.50;;
57325;SDS011;43161;50.950;18.224;2023-06-14T03:09:58;12.20;;;5.60;;
57325;SDS011;43161;50.950;18.224;2023-06-14T03:12:23;12.00;;;5.40;;
57325;SDS011;43161;50.950;18.224;2023-06-14T03:14:50;13.00;;;5.00;;
57325;SDS011;43161;50.950;18.224;2023-06-14T03:17:16;12.10;;;5.50;;
57325;SDS011;43161;50.950;18.224;2023-06-14T03:19:43;12.60;;;5.30;;
57325;SDS011;43161;50.950;18.224;2023-06-14T03:22:09;13.90;;;5.80;;
57325;SDS011;43161;50.950;18.224;2023-06-14T03:24:37;13.00;;;5.70;;
57325;SDS011;43161;50.950;18.224;2023-06-14T03:27:03;13.80;;;5.60;;
57325;SDS011;43161;50.950;18.224;2023-06-14T03:29:29;13.60;;;5.80;;
57325;SDS011;43161;50.950;18.224;2023-06-14T03:32:01;11.50;;;5.10;;
57325;SDS011;43161;50.950;18.224;2023-06-14T03:34:28;12.10;;;5.40;;
57325;SDS011;43161;50.950;18.224;2023-06-14T03:36:54;15.00;;;5.90;;
57325;SDS011;43161;50.950;18.224;2023-06-14T03:39:20;14.00;;;6.10;;
57325;SDS011;43161;50.950;18.224;2023-06-14T03:41:46;12.90;;;5.80;;
57325;SDS011;43161;50.950;18.224;2023-06-14T03:44:13;12.00;;;5.70;;
57325;SDS011;43161;50.950;18.224;2023-06-14T03:46:40;15.20;;;6.50;;
57325;SDS011;43161;50.950;18.224;2023-06-14T03:49:06;14.50;;;6.00;;
57325;SDS011;43161;50.950;18.224;2023-06-14T03:51:32;15.60;;;6.10;;
57325;SDS011;43161;50.950;18.224;2023-06-14T03:54:00;17.80;;;6.00;;
57325;SDS011;43161;50.950;18.224;2023-06-14T03:56:26;15.90;;;6.90;;
57325;SDS011;43161;50.950;18.224;2023-06-14T03:58:52;15.40;;;6.90;;
57325;SDS011;43161;50.950;18.224;2023-06-14T04:01:18;14.80;;;6.90;;
57325;SDS011;43161;50.950;18.224;2023-06-14T04:03:43;13.60;;;6.50;;
57325;SDS011;43161;50.950;18.224;2023-06-14T04:06:09;15.80;;;7.00;;
57325;SDS011;43161;50.950;18.224;2023-06-14T04:08:35;15.40;;;7.30;;
57325;SDS011;43161;50.950;18.224;2023-06-14T04:11:01;14.50;;;7.00;;
57325;SDS011;43161;50.950;18.224;2023-06-14T04:13:26;16.10;;;7.70;;
57325;SDS011;43161;50.950;18.224;2023-06-14T04:15:52;15.60;;;7.80;;
57325;SDS011;43161;50.950;18.224;2023-06-14T04:18:18;14.50;;;7.70;;
57325;SDS011;43161;50.950;18.224;2023-06-14T04:20:44;15.10;;;7.20;;
57325;SDS011;43161;50.950;18.224;2023-06-14T04:23:11;15.60;;;7.70;;
57325;SDS011;43161;50.950;18.224;2023-06-14T04:25:40;16.00;;;8.00;;
57325;SDS011;43161;50.950;18.224;2023-06-14T04:28:10;14.90;;;7.80;;
57325;SDS011;43161;50.950;18.224;2023-06-14T04:30:37;16.90;;;7.90;;
57325;SDS011;43161;50.950;18.224;2023-06-14T04:33:04;15.80;;;8.20;;
57325;SDS011;43161;50.950;18.224;2023-06-14T04:35:31;15.40;;;8.10;;
57325;SDS011;43161;50.950;18.224;2023-06-14T04:37:57;20.10;;;8.10;;
57325;SDS011;43161;50.950;18.224;2023-06-14T04:40:24;17.40;;;9.00;;
57325;SDS011;43161;50.950;18.224;2023-06-14T04:42:50;16.40;;;9.00;;
57325;SDS011;43161;50.950;18.224;2023-06-14T04:45:17;17.10;;;8.00;;
57325;SDS011;43161;50.950;18.224;2023-06-14T04:47:42;20.80;;;8.40;;
57325;SDS011;43161;50.950;18.224;2023-06-14T04:50:09;16.90;;;8.50;;
57325;SDS011;43161;50.950;18.224;2023-06-14T04:52:36;17.80;;;9.10;;
57325;SDS011;43161;50.950;18.224;2023-06-14T04:55:02;18.40;;;9.10;;
57325;SDS011;43161;50.950;18.224;2023-06-14T04:57:28;16.10;;;8.60;;
57325;SDS011;43161;50.950;18.224;2023-06-14T04:59:54;17.90;;;9.30;;
57325;SDS011;43161;50.950;18.224;2023-06-14T05:02:23;17.30;;;9.20;;
57325;SDS011;43161;50.950;18.224;2023-06-14T05:04:50;17.50;;;8.80;;
57325;SDS011;43161;50.950;18.224;2023-06-14T05:07:16;17.90;;;8.70;;
57325;SDS011;43161;50.950;18.224;2023-06-14T05:09:42;17.80;;;8.50;;
57325;SDS011;43161;50.950;18.224;2023-06-14T05:12:07;16.30;;;8.70;;
57325;SDS011;43161;50.950;18.224;2023-06-14T05:14:33;16.50;;;8.70;;
57325;SDS011;43161;50.950;18.224;2023-06-14T05:17:00;17.30;;;8.70;;
57325;SDS011;43161;50.950;18.224;2023-06-14T05:19:25;16.60;;;7.60;;
57325;SDS011;43161;50.950;18.224;2023-06-14T05:21:51;15.50;;;7.30;;
57325;SDS011;43161;50.950;18.224;2023-06-14T05:24:18;15.60;;;7.10;;
57325;SDS011;43161;50.950;18.224;2023-06-14T05:26:45;15.10;;;6.90;;
57325;SDS011;43161;50.950;18.224;2023-06-14T05:29:11;15.00;;;6.80;;
57325;SDS011;43161;50.950;18.224;2023-06-14T05:31:37;14.10;;;7.30;;
57325;SDS011;43161;50.950;18.224;2023-06-14T05:34:03;16.10;;;7.00;;
57325;SDS011;43161;50.950;18.224;2023-06-14T05:36:29;13.50;;;7.20;;
57325;SDS011;43161;50.950;18.224;2023-06-14T05:38:56;14.80;;;7.10;;
57325;SDS011;43161;50.950;18.224;2023-06-14T05:41:25;13.30;;;6.30;;
57325;SDS011;43161;50.950;18.224;2023-06-14T05:43:54;12.60;;;6.50;;
57325;SDS011;43161;50.950;18.224;2023-06-14T05:46:20;15.60;;;6.70;;
57325;SDS011;43161;50.950;18.224;2023-06-14T05:48:49;15.30;;;7.10;;
57325;SDS011;43161;50.950;18.224;2023-06-14T05:51:16;14.10;;;6.80;;
57325;SDS011;43161;50.950;18.224;2023-06-14T05:53:47;13.10;;;6.50;;
57325;SDS011;43161;50.950;18.224;2023-06-14T05:56:14;13.30;;;6.70;;
57325;SDS011;43161;50.950;18.224;2023-06-14T05:58:40;14.60;;;6.80;;
57325;SDS011;43161;50.950;18.224;2023-06-14T06:01:06;14.70;;;7.00;;
57325;SDS011;43161;50.950;18.224;2023-06-14T06:03:31;17.70;;;6.60;;
57325;SDS011;43161;50.950;18.224;2023-06-14T06:05:58;15.30;;;6.40;;
57325;SDS011;43161;50.950;18.224;2023-06-14T06:08:24;15.10;;;6.20;;
57325;SDS011;43161;50.950;18.224;2023-06-14T06:10:50;13.80;;;6.30;;
57325;SDS011;43161;50.950;18.224;2023-06-14T06:13:15;15.10;;;7.00;;
57325;SDS011;43161;50.950;18.224;2023-06-14T06:15:41;16.10;;;6.70;;
57325;SDS011;43161;50.950;18.224;2023-06-14T06:18:07;14.90;;;6.50;;
57325;SDS011;43161;50.950;18.224;2023-06-14T06:20:32;13.60;;;6.50;;
57325;SDS011;43161;50.950;18.224;2023-06-14T06:22:58;13.60;;;6.30;;
57325;SDS011;43161;50.950;18.224;2023-06-14T06:25:25;13.60;;;6.70;;
57325;SDS011;43161;50.950;18.224;2023-06-14T06:27:52;15.50;;;7.10;;
57325;SDS011;43161;50.950;18.224;2023-06-14T06:30:19;14.30;;;6.80;;
57325;SDS011;43161;50.950;18.224;2023-06-14T06:32:45;13.20;;;6.60;;
57325;SDS011;43161;50.950;18.224;2023-06-14T06:35:11;15.80;;;7.20;;
57325;SDS011;43161;50.950;18.224;2023-06-14T06:37:38;13.90;;;6.80;;
57325;SDS011;43161;50.950;18.224;2023-06-14T06:40:04;12.40;;;6.40;;
57325;SDS011;43161;50.950;18.224;2023-06-14T06:42:31;15.60;;;6.80;;
57325;SDS011;43161;50.950;18.224;2023-06-14T06:44:57;15.50;;;6.70;;
57325;SDS011;43161;50.950;18.224;2023-06-14T06:47:24;13.60;;;6.40;;
57325;SDS011;43161;50.950;18.224;2023-06-14T06:49:50;16.60;;;6.40;;
57325;SDS011;43161;50.950;18.224;2023-06-14T06:52:16;13.50;;;6.70;;
57325;SDS011;43161;50.950;18.224;2023-06-14T06:54:42;13.70;;;6.50;;
57325;SDS011;43161;50.950;18.224;2023-06-14T06:57:07;14.70;;;6.40;;
57325;SDS011;43161;50.950;18.224;2023-06-14T06:59:34;14.30;;;6.20;;
57325;SDS011;43161;50.950;18.224;2023-06-14T07:02:00;12.20;;;6.20;;
57325;SDS011;43161;50.950;18.224;2023-06-14T07:04:25;15.60;;;6.30;;
57325;SDS011;43161;50.950;18.224;2023-06-14T07:06:51;12.00;;;5.90;;
57325;SDS011;43161;50.950;18.224;2023-06-14T07:09:17;12.50;;;6.10;;
57325;SDS011;43161;50.950;18.224;2023-06-14T07:11:43;12.60;;;5.90;;
57325;SDS011;43161;50.950;18.224;2023-06-14T07:14:10;14.10;;;6.10;;
57325;SDS011;43161;50.950;18.224;2023-06-14T07:16:36;13.70;;;6.50;;
57325;SDS011;43161;50.950;18.224;2023-06-14T07:19:02;12.30;;;5.80;;
57325;SDS011;43161;50.950;18.224;2023-06-14T07:21:28;12.70;;;6.50;;
57325;SDS011;43161;50.950;18.224;2023-06-14T07:23:54;12.20;;;6.00;;
57325;SDS011;43161;50.950;18.224;2023-06-14T07:26:21;11.40;;;5.80;;
57325;SDS011;43161;50.950;18.224;2023-06-14T07:28:47;12.00;;;5.50;;
57325;SDS011;43161;50.950;18.224;2023-06-14T07:31:14;13.30;;;6.20;;
57325;SDS011;43161;50.950;18.224;2023-06-14T07:33:41;12.60;;;6.20;;
57325;SDS011;43161;50.950;18.224;2023-06-14T07:36:06;13.40;;;5.50;;
57325;SDS011;43161;50.950;18.224;2023-06-14T07:38:32;12.10;;;5.40;;
57325;SDS011;43161;50.950;18.224;2023-06-14T07:40:58;12.00;;;5.70;;
57325;SDS011;43161;50.950;18.224;2023-06-14T07:43:24;12.70;;;5.20;;
57325;SDS011;43161;50.950;18.224;2023-06-14T07:45:50;12.10;;;6.00;;
57325;SDS011;43161;50.950;18.224;2023-06-14T07:48:16;11.80;;;5.20;;
57325;SDS011;43161;50.950;18.224;2023-06-14T07:50:42;13.50;;;5.30;;
57325;SDS011;43161;50.950;18.224;2023-06-14T07:53:08;11.40;;;5.10;;
57325;SDS011;43161;50.950;18.224;2023-06-14T07:55:34;13.60;;;5.30;;
57325;SDS011;43161;50.950;18.224;2023-06-14T07:58:05;10.80;;;5.10;;
57325;SDS011;43161;50.950;18.224;2023-06-14T08:00:31;12.00;;;5.50;;
57325;SDS011;43161;50.950;18.224;2023-06-14T08:02:57;12.40;;;5.70;;
57325;SDS011;43161;50.950;18.224;2023-06-14T08:05:26;12.00;;;5.90;;
57325;SDS011;43161;50.950;18.224;2023-06-14T08:07:52;12.10;;;5.40;;
57325;SDS011;43161;50.950;18.224;2023-06-14T08:10:18;11.60;;;5.50;;
57325;SDS011;43161;50.950;18.224;2023-06-14T08:12:44;11.30;;;5.50;;
57325;SDS011;43161;50.950;18.224;2023-06-14T08:15:10;12.30;;;5.50;;
57325;SDS011;43161;50.950;18.224;2023-06-14T08:17:35;11.70;;;5.20;;
57325;SDS011;43161;50.950;18.224;2023-06-14T08:20:01;11.80;;;5.30;;
57325;SDS011;43161;50.950;18.224;2023-06-14T08:22:30;11.50;;;5.40;;
57325;SDS011;43161;50.950;18.224;2023-06-14T08:24:58;12.00;;;5.20;;
57325;SDS011;43161;50.950;18.224;2023-06-14T08:27:23;11.60;;;5.80;;
57325;SDS011;43161;50.950;18.224;2023-06-14T08:29:49;13.00;;;5.40;;
57325;SDS011;43161;50.950;18.224;2023-06-14T08:32:15;11.50;;;5.30;;
57325;SDS011;43161;50.950;18.224;2023-06-14T08:34:41;10.90;;;5.40;;
57325;SDS011;43161;50.950;18.224;2023-06-14T08:37:07;11.60;;;5.30;;
57325;SDS011;43161;50.950;18.224;2023-06-14T08:39:33;11.90;;;5.00;;
57325;SDS011;43161;50.950;18.224;2023-06-14T08:41:58;10.90;;;5.10;;
57325;SDS011;43161;50.950;18.224;2023-06-14T08:44:28;11.10;;;5.10;;
57325;SDS011;43161;50.950;18.224;2023-06-14T08:46:55;11.30;;;5.10;;
57325;SDS011;43161;50.950;18.224;2023-06-14T08:49:22;12.30;;;5.50;;
57325;SDS011;43161;50.950;18.224;2023-06-14T08:51:49;10.80;;;5.00;;
57325;SDS011;43161;50.950;18.224;2023-06-14T08:54:17;12.60;;;5.60;;
57325;SDS011;43161;50.950;18.224;2023-06-14T08:56:46;10.60;;;5.00;;
57325;SDS011;43161;50.950;18.224;2023-06-14T08:59:14;12.60;;;5.20;;
57325;SDS011;43161;50.950;18.224;2023-06-14T09:01:40;14.70;;;5.20;;
57325;SDS011;43161;50.950;18.224;2023-06-14T09:04:06;11.40;;;5.50;;
57325;SDS011;43161;50.950;18.224;2023-06-14T09:06:31;10.90;;;5.10;;
57325;SDS011;43161;50.950;18.224;2023-06-14T09:08:58;12.40;;;5.50;;
57325;SDS011;43161;50.950;18.224;2023-06-14T09:11:23;11.20;;;5.30;;
57325;SDS011;43161;50.950;18.224;2023-06-14T09:13:51;13.00;;;5.30;;
57325;SDS011;43161;50.950;18.224;2023-06-14T09:16:17;11.40;;;5.00;;
57325;SDS011;43161;50.950;18.224;2023-06-14T09:18:46;12.20;;;4.90;;
57325;SDS011;43161;50.950;18.224;2023-06-14T09:21:16;11.80;;;5.10;;
57325;SDS011;43161;50.950;18.224;2023-06-14T09:23:46;10.60;;;5.40;;
57325;SDS011;43161;50.950;18.224;2023-06-14T09:26:14;12.40;;;5.70;;
57325;SDS011;43161;50.950;18.224;2023-06-14T09:28:44;10.40;;;4.70;;
57325;SDS011;43161;50.950;18.224;2023-06-14T09:31:14;10.80;;;5.00;;
57325;SDS011;43161;50.950;18.224;2023-06-14T09:33:42;10.50;;;4.60;;
57325;SDS011;43161;50.950;18.224;2023-06-14T09:38:57;11.70;;;5.40;;
57325;SDS011;43161;50.950;18.224;2023-06-14T09:44:11;11.00;;;4.70;;
57325;SDS011;43161;50.950;18.224;2023-06-14T09:46:37;12.90;;;5.20;;
57325;SDS011;43161;50.950;18.224;2023-06-14T09:49:04;13.10;;;4.50;;
57325;SDS011;43161;50.950;18.224;2023-06-14T09:51:31;10.40;;;4.50;;
57325;SDS011;43161;50.950;18.224;2023-06-14T09:53:58;11.00;;;4.70;;
57325;SDS011;43161;50.950;18.224;2023-06-14T09:56:27;10.40;;;4.30;;
57325;SDS011;43161;50.950;18.224;2023-06-14T09:58:57;10.90;;;4.20;;
57325;SDS011;43161;50.950;18.224;2023-06-14T10:01:24;12.70;;;4.30;;
57325;SDS011;43161;50.950;18.224;2023-06-14T10:03:57;8.90;;;4.10;;
57325;SDS011;43161;50.950;18.224;2023-06-14T10:06:28;10.00;;;4.60;;
57325;SDS011;43161;50.950;18.224;2023-06-14T10:08:59;9.20;;;3.90;;
57325;SDS011;43161;50.950;18.224;2023-06-14T10:11:25;11.20;;;4.00;;
57325;SDS011;43161;50.950;18.224;2023-06-14T10:13:52;9.40;;;4.00;;
57325;SDS011;43161;50.950;18.224;2023-06-14T10:19:18;10.90;;;4.10;;
57325;SDS011;43161;50.950;18.224;2023-06-14T10:24:32;9.60;;;4.30;;
57325;SDS011;43161;50.950;18.224;2023-06-14T10:26:59;11.80;;;4.60;;
57325;SDS011;43161;50.950;18.224;2023-06-14T10:29:26;11.10;;;4.80;;
57325;SDS011;43161;50.950;18.224;2023-06-14T10:31:57;11.20;;;4.20;;
57325;SDS011;43161;50.950;18.224;2023-06-14T10:34:24;12.00;;;4.50;;
57325;SDS011;43161;50.950;18.224;2023-06-14T10:39:39;12.30;;;4.40;;
57325;SDS011;43161;50.950;18.224;2023-06-14T10:42:11;11.40;;;4.50;;
57325;SDS011;43161;50.950;18.224;2023-06-14T10:44:47;10.70;;;3.80;;
57325;SDS011;43161;50.950;18.224;2023-06-14T10:52:32;11.00;;;5.10;;
57325;SDS011;43161;50.950;18.224;2023-06-14T10:57:51;13.80;;;5.20;;
57325;SDS011;43161;50.950;18.224;2023-06-14T11:00:19;12.80;;;5.80;;
57325;SDS011;43161;50.950;18.224;2023-06-14T11:05:31;13.60;;;6.20;;
57325;SDS011;43161;50.950;18.224;2023-06-14T11:11:09;15.60;;;6.70;;
57325;SDS011;43161;50.950;18.224;2023-06-14T11:13:39;12.20;;;6.50;;
57325;SDS011;43161;50.950;18.224;2023-06-14T11:16:15;13.50;;;6.50;;
57325;SDS011;43161;50.950;18.224;2023-06-14T11:18:44;15.50;;;6.70;;
57325;SDS011;43161;50.950;18.224;2023-06-14T11:21:10;13.40;;;6.30;;
57325;SDS011;43161;50.950;18.224;2023-06-14T11:23:36;13.30;;;6.60;;
57325;SDS011;43161;50.950;18.224;2023-06-14T11:26:02;15.80;;;7.50;;
57325;SDS011;43161;50.950;18.224;2023-06-14T11:28:36;13.40;;;7.50;;
57325;SDS011;43161;50.950;18.224;2023-06-14T11:31:03;13.30;;;7.10;;
57325;SDS011;43161;50.950;18.224;2023-06-14T11:33:30;13.40;;;7.20;;
57325;SDS011;43161;50.950;18.224;2023-06-14T11:35:55;12.80;;;7.10;;
57325;SDS011;43161;50.950;18.224;2023-06-14T11:38:21;12.70;;;6.20;;
57325;SDS011;43161;50.950;18.224;2023-06-14T11:40:46;12.10;;;6.20;;
57325;SDS011;43161;50.950;18.224;2023-06-14T11:43:12;12.40;;;6.80;;
57325;SDS011;43161;50.950;18.224;2023-06-14T11:45:39;14.30;;;6.80;;
57325;SDS011;43161;50.950;18.224;2023-06-14T11:48:05;12.20;;;6.70;;
57325;SDS011;43161;50.950;18.224;2023-06-14T11:50:32;12.30;;;6.10;;
57325;SDS011;43161;50.950;18.224;2023-06-14T11:52:59;13.00;;;6.30;;
57325;SDS011;43161;50.950;18.224;2023-06-14T11:55:38;12.00;;;6.20;;
57325;SDS011;43161;50.950;18.224;2023-06-14T11:58:05;17.70;;;7.20;;
57325;SDS011;43161;50.950;18.224;2023-06-14T12:00:31;13.60;;;7.20;;
57325;SDS011;43161;50.950;18.224;2023-06-14T12:02:57;14.70;;;6.70;;
57325;SDS011;43161;50.950;18.224;2023-06-14T12:05:24;16.30;;;6.30;;
57325;SDS011;43161;50.950;18.224;2023-06-14T12:07:58;17.60;;;8.00;;
57325;SDS011;43161;50.950;18.224;2023-06-14T12:10:25;15.00;;;7.60;;
57325;SDS011;43161;50.950;18.224;2023-06-14T12:12:56;17.00;;;7.60;;
57325;SDS011;43161;50.950;18.224;2023-06-14T12:15:23;14.50;;;7.80;;
57325;SDS011;43161;50.950;18.224;2023-06-14T12:17:48;15.70;;;8.70;;
57325;SDS011;43161;50.950;18.224;2023-06-14T12:20:14;15.80;;;8.00;;
57325;SDS011;43161;50.950;18.224;2023-06-14T12:25:28;15.50;;;7.80;;
57325;SDS011;43161;50.950;18.224;2023-06-14T12:28:03;15.80;;;8.00;;
57325;SDS011;43161;50.950;18.224;2023-06-14T12:30:33;14.50;;;7.50;;
57325;SDS011;43161;50.950;18.224;2023-06-14T12:32:59;15.10;;;8.20;;
57325;SDS011;43161;50.950;18.224;2023-06-14T12:35:26;16.20;;;8.30;;
57325;SDS011;43161;50.950;18.224;2023-06-14T12:37:52;17.00;;;7.80;;
57325;SDS011;43161;50.950;18.224;2023-06-14T12:40:18;15.00;;;7.10;;
57325;SDS011;43161;50.950;18.224;2023-06-14T12:42:44;16.10;;;8.00;;
57325;SDS011;43161;50.950;18.224;2023-06-14T12:45:12;15.00;;;7.80;;
57325;SDS011;43161;50.950;18.224;2023-06-14T12:47:38;13.10;;;7.40;;
57325;SDS011;43161;50.950;18.224;2023-06-14T12:50:05;16.60;;;7.20;;
57325;SDS011;43161;50.950;18.224;2023-06-14T12:52:31;14.40;;;7.60;;
57325;SDS011;43161;50.950;18.224;2023-06-14T12:55:02;15.00;;;7.20;;
57325;SDS011;43161;50.950;18.224;2023-06-14T12:57:29;12.80;;;6.40;;
57325;SDS011;43161;50.950;18.224;2023-06-14T12:59:54;12.90;;;6.40;;
57325;SDS011;43161;50.950;18.224;2023-06-14T13:02:20;12.40;;;6.40;;
57325;SDS011;43161;50.950;18.224;2023-06-14T13:04:47;13.70;;;7.00;;
57325;SDS011;43161;50.950;18.224;2023-06-14T13:07:13;13.30;;;6.60;;
57325;SDS011;43161;50.950;18.224;2023-06-14T13:09:41;13.60;;;6.40;;
57325;SDS011;43161;50.950;18.224;2023-06-14T13:12:07;12.50;;;6.40;;
57325;SDS011;43161;50.950;18.224;2023-06-14T13:14:36;15.10;;;6.10;;
57325;SDS011;43161;50.950;18.224;2023-06-14T13:17:01;12.20;;;6.10;;
57325;SDS011;43161;50.950;18.224;2023-06-14T13:19:27;13.00;;;6.10;;
57325;SDS011;43161;50.950;18.224;2023-06-14T13:21:53;12.20;;;5.40;;
57325;SDS011;43161;50.950;18.224;2023-06-14T13:24:19;11.10;;;5.00;;
57325;SDS011;43161;50.950;18.224;2023-06-14T13:26:44;10.60;;;4.60;;
57325;SDS011;43161;50.950;18.224;2023-06-14T13:29:10;10.50;;;4.00;;
57325;SDS011;43161;50.950;18.224;2023-06-14T13:31:36;9.00;;;3.50;;
57325;SDS011;43161;50.950;18.224;2023-06-14T13:34:02;8.10;;;3.20;;
57325;SDS011;43161;50.950;18.224;2023-06-14T13:36:28;7.20;;;2.70;;
57325;SDS011;43161;50.950;18.224;2023-06-14T13:38:55;8.20;;;2.50;;
57325;SDS011;43161;50.950;18.224;2023-06-14T13:41:21;10.60;;;3.20;;
57325;SDS011;43161;50.950;18.224;2023-06-14T13:43:47;9.00;;;3.30;;
57325;SDS011;43161;50.950;18.224;2023-06-14T13:46:13;7.70;;;2.80;;
57325;SDS011;43161;50.950;18.224;2023-06-14T13:48:38;8.80;;;3.00;;
57325;SDS011;43161;50.950;18.224;2023-06-14T13:51:04;8.80;;;3.00;;
57325;SDS011;43161;50.950;18.224;2023-06-14T13:53:30;6.80;;;2.50;;
57325;SDS011;43161;50.950;18.224;2023-06-14T13:55:56;7.90;;;2.70;;
57325;SDS011;43161;50.950;18.224;2023-06-14T13:58:22;7.20;;;2.40;;
57325;SDS011;43161;50.950;18.224;2023-06-14T14:00:49;6.50;;;2.20;;
57325;SDS011;43161;50.950;18.224;2023-06-14T14:03:15;5.80;;;1.90;;
57325;SDS011;43161;50.950;18.224;2023-06-14T14:05:40;6.30;;;2.00;;
57325;SDS011;43161;50.950;18.224;2023-06-14T14:08:07;6.50;;;2.00;;
57325;SDS011;43161;50.950;18.224;2023-06-14T14:10:32;5.90;;;1.90;;
57325;SDS011;43161;50.950;18.224;2023-06-14T14:12:58;5.70;;;1.70;;
57325;SDS011;43161;50.950;18.224;2023-06-14T14:15:25;7.90;;;2.00;;
57325;SDS011;43161;50.950;18.224;2023-06-14T14:17:51;6.60;;;2.00;;
57325;SDS011;43161;50.950;18.224;2023-06-14T14:20:17;5.80;;;1.90;;
57325;SDS011;43161;50.950;18.224;2023-06-14T14:22:42;6.70;;;2.40;;
57325;SDS011;43161;50.950;18.224;2023-06-14T14:25:08;6.60;;;2.00;;
57325;SDS011;43161;50.950;18.224;2023-06-14T14:27:35;6.30;;;1.80;;
57325;SDS011;43161;50.950;18.224;2023-06-14T14:30:01;5.20;;;1.70;;
57325;SDS011;43161;50.950;18.224;2023-06-14T14:32:27;6.70;;;2.10;;
57325;SDS011;43161;50.950;18.224;2023-06-14T14:34:53;7.40;;;1.90;;
57325;SDS011;43161;50.950;18.224;2023-06-14T14:37:18;5.50;;;1.60;;
57325;SDS011;43161;50.950;18.224;2023-06-14T14:39:44;6.10;;;2.00;;
57325;SDS011;43161;50.950;18.224;2023-06-14T14:42:11;7.20;;;2.00;;
57325;SDS011;43161;50.950;18.224;2023-06-14T14:44:38;6.30;;;2.10;;
57325;SDS011;43161;50.950;18.224;2023-06-14T14:47:04;6.90;;;2.40;;
57325;SDS011;43161;50.950;18.224;2023-06-14T14:49:31;7.10;;;2.40;;
57325;SDS011;43161;50.950;18.224;2023-06-14T14:51:57;9.40;;;3.10;;
57325;SDS011;43161;50.950;18.224;2023-06-14T14:54:23;9.70;;;3.00;;
57325;SDS011;43161;50.950;18.224;2023-06-14T14:56:50;8.50;;;3.20;;